Time;durP1;ratioP1;P1;durP2;ratioP2;P2;SDS_P1;SDS_P2;PMS_P1;PMS_P2;Temp;Humidity;BMP_temperature;BMP_pressure;BME280_temperature;BME280_humidity;BME280_pressure;Samples;Min_cycle;Max_cycle;Signal;HPM_P1;HPM_P2
2022/06/29 05:35:19;;;;;;;27.13;25.83;;;19.20;53.40;;;;;;5054440;28;20437;-74
2022/06/29 05:42:00;;;;;;;25.97;24.67;;;19.30;52.30;;;;;;4972227;28;20536;-72
2022/06/29 05:45:21;;;;;;;25.17;24.07;;;19.30;53.40;;;;;;4934737;29;20415;-72
2022/06/29 05:47:48;;;;;;;24.90;23.70;;;19.40;53.70;;;;;;4949139;28;20418;-72
2022/06/29 05:50:13;;;;;;;26.07;24.67;;;19.40;54.00;;;;;;4957748;28;20450;-71
2022/06/29 05:52:40;;;;;;;28.43;26.90;;;19.60;51.50;;;;;;5027293;28;20238;-71
2022/06/29 05:55:06;;;;;;;27.63;26.13;;;19.70;51.60;;;;;;5054483;28;20183;-73
2022/06/29 05:57:34;;;;;;;26.83;25.63;;;19.70;51.50;;;;;;5053778;28;20450;-74
2022/06/29 06:00:44;;;;;;;27.40;26.10;;;19.70;51.90;;;;;;5053912;28;20415;-71
2022/06/29 06:10:14;;;;;;;28.00;26.50;;;20.00;50.40;;;;;;5054082;28;20398;-72
2022/06/29 06:12:40;;;;;;;27.37;26.00;;;20.00;50.60;;;;;;5036223;28;20407;-71
2022/06/29 06:15:07;;;;;;;26.67;25.30;;;20.00;50.80;;;;;;5036226;28;20421;-71
2022/06/29 06:18:42;;;;;;;28.80;27.40;;;20.00;50.50;;;;;;5035678;28;20257;-72
2022/06/29 07:03:49;;;;;;;26.63;25.33;;;21.30;44.80;;;;;;5069860;28;20488;-73
2022/06/29 07:06:15;;;;;;;27.53;25.90;;;21.40;45.70;;;;;;5071674;28;20418;-71
2022/06/29 07:08:41;;;;;;;28.13;26.73;;;21.40;45.40;;;;;;5054658;28;20512;-70
2022/06/29 07:11:08;;;;;;;28.53;27.23;;;21.50;45.70;;;;;;5054481;28;20471;-73
2022/06/29 07:13:34;;;;;;;28.63;27.07;;;21.60;44.80;;;;;;5054682;28;20817;-71
2022/06/29 07:16:03;;;;;;;28.90;27.17;;;21.60;44.50;;;;;;5054581;28;20418;-72
2022/06/29 07:18:29;;;;;;;28.43;26.93;;;21.70;44.70;;;;;;5054918;28;20971;-71
2022/06/29 07:20:55;;;;;;;28.73;27.33;;;21.80;44.50;;;;;;5054252;28;21054;-72
2022/06/29 07:23:21;;;;;;;28.47;26.97;;;21.90;44.80;;;;;;5054580;28;20793;-72
2022/06/29 07:25:47;;;;;;;29.43;27.77;;;21.90;43.70;;;;;;5057050;28;20417;-70
2022/06/29 07:28:39;;;;;;;28.63;27.00;;;21.90;43.30;;;;;;5066913;28;20462;-71
2022/06/29 07:31:06;;;;;;;31.83;28.53;;;22.00;44.10;;;;;;5072467;28;20409;-71
2022/06/29 07:33:31;;;;;;;28.17;26.20;;;22.00;44.20;;;;;;5054392;28;20512;-71
2022/06/29 07:35:57;;;;;;;26.50;24.47;;;22.00;43.50;;;;;;5072661;28;20487;-72
2022/06/29 07:38:23;;;;;;;29.43;27.63;;;22.20;42.60;;;;;;5054524;28;20225;-71
2022/06/29 07:40:49;;;;;;;31.10;29.60;;;22.10;42.20;;;;;;5054588;28;20413;-71
2022/06/29 07:43:16;;;;;;;28.87;27.03;;;22.20;42.20;;;;;;5072355;28;20655;-72
2022/06/29 07:45:43;;;;;;;28.60;27.10;;;22.20;42.70;;;;;;5054101;28;20254;-73
2022/06/29 07:48:08;;;;;;;31.20;28.60;;;22.30;42.90;;;;;;5054203;28;20414;-71
2022/06/29 07:50:34;;;;;;;27.33;25.73;;;22.40;42.40;;;;;;5053861;28;20754;-72
2022/06/29 07:53:00;;;;;;;28.83;27.10;;;22.40;42.40;;;;;;5072544;28;20463;-71
2022/06/29 07:55:26;;;;;;;29.00;27.50;;;22.50;42.50;;;;;;5072011;28;20504;-72
2022/06/29 07:57:52;;;;;;;30.37;28.63;;;22.60;42.20;;;;;;5051182;28;20413;-71
2022/06/29 08:00:18;;;;;;;28.30;27.00;;;22.50;40.80;;;;;;5036077;28;20184;-71
2022/06/29 08:02:44;;;;;;;28.83;27.03;;;22.50;41.70;;;;;;5069748;28;20535;-71
2022/06/29 08:05:10;;;;;;;29.43;27.77;;;22.60;42.00;;;;;;5070728;28;20275;-71
2022/06/29 08:07:35;;;;;;;28.83;27.53;;;22.60;42.30;;;;;;5070468;28;20705;-70
2022/06/29 08:10:03;;;;;;;29.17;27.60;;;22.60;41.20;;;;;;5071641;28;20914;-72
2022/06/29 08:12:30;;;;;;;28.73;27.27;;;22.60;40.20;;;;;;5070861;28;20635;-72
2022/06/29 08:25:09;;;;;;;29.07;27.53;;;23.00;38.80;;;;;;5071841;28;20447;-70
2022/06/29 08:27:35;;;;;;;29.27;27.60;;;23.00;39.00;;;;;;5053920;28;20835;-71
2022/06/29 08:30:01;;;;;;;27.73;26.30;;;23.10;37.10;;;;;;5068210;28;20934;-70
2022/06/29 08:32:27;;;;;;;28.47;26.80;;;23.10;37.80;;;;;;5053812;28;20424;-72
2022/06/29 08:34:52;;;;;;;28.77;27.37;;;23.10;37.00;;;;;;5051846;28;20417;-72
2022/06/29 08:37:19;;;;;;;30.30;28.80;;;23.10;37.90;;;;;;5037254;28;20183;-72
2022/06/29 08:39:45;;;;;;;29.93;28.53;;;23.10;37.00;;;;;;5053540;28;20924;-70
2022/06/29 08:42:11;;;;;;;29.10;27.70;;;23.20;38.30;;;;;;5053454;28;20500;-72
2022/06/29 08:44:38;;;;;;;28.80;27.40;;;23.20;36.60;;;;;;5053584;28;20410;-72
2022/06/29 08:47:06;;;;;;;29.13;27.73;;;23.30;38.00;;;;;;5053587;28;20672;-72
2022/06/29 08:49:32;;;;;;;28.37;26.97;;;23.30;37.40;;;;;;5053603;28;20413;-72
2022/06/29 08:51:58;;;;;;;27.90;26.60;;;23.40;37.90;;;;;;5053152;28;20425;-71
2022/06/29 08:54:25;;;;;;;29.87;28.03;;;23.60;37.20;;;;;;5054782;28;20426;-71
2022/06/29 08:56:54;;;;;;;28.43;27.03;;;23.60;37.60;;;;;;5070222;28;20426;-70
2022/06/29 08:59:22;;;;;;;28.17;26.87;;;23.70;36.80;;;;;;5062960;28;20413;-70
2022/06/29 09:01:52;;;;;;;28.70;27.40;;;23.70;37.40;;;;;;5052975;28;20457;-71
2022/06/29 09:04:19;;;;;;;27.77;26.47;;;23.60;35.30;;;;;;5053587;28;20464;-71
2022/06/29 09:06:45;;;;;;;28.20;26.90;;;23.70;36.80;;;;;;5053321;28;20421;-72
2022/06/29 09:09:14;;;;;;;27.43;26.03;;;23.80;36.50;;;;;;5053589;28;20471;-71
2022/06/29 09:11:43;;;;;;;28.27;26.87;;;24.00;35.00;;;;;;5054733;28;20415;-70
2022/06/29 09:14:16;;;;;;;28.87;27.27;;;24.10;35.90;;;;;;5041307;28;20830;-73
2022/06/29 09:16:56;;;;;;;28.33;26.83;;;24.20;34.40;;;;;;5056493;28;20424;-72
2022/06/29 09:19:25;;;;;;;27.67;26.47;;;24.30;35.20;;;;;;5073892;28;20415;-72
2022/06/29 09:21:53;;;;;;;29.70;28.00;;;24.40;33.70;;;;;;5056418;28;20906;-72
2022/06/29 09:25:44;;;;;;;28.97;27.57;;;24.50;34.00;;;;;;5074727;28;20179;-73
2022/06/29 09:28:31;;;;;;;27.50;25.90;;;24.50;33.10;;;;;;4991745;28;20413;-74
2022/06/29 09:31:52;;;;;;;27.07;25.77;;;24.30;32.40;;;;;;5005936;28;20422;-76
2022/06/29 10:14:43;;;;;;;25.90;24.80;;;23.60;35.60;;;;;;5073688;28;20964;-71
2022/06/29 10:17:34;;;;;;;25.50;24.40;;;23.60;35.40;;;;;;5089341;28;20430;-72
2022/06/29 10:20:28;;;;;;;25.73;24.53;;;23.80;35.50;;;;;;5073467;28;20229;-73
2022/06/29 10:22:54;;;;;;;24.97;23.67;;;23.70;35.70;;;;;;5072315;28;20511;-72
2022/06/29 10:25:27;;;;;;;26.20;24.80;;;23.60;36.70;;;;;;5061633;28;20418;-72
2022/06/29 10:28:20;;;;;;;25.37;24.27;;;23.60;36.50;;;;;;5055445;28;20175;-74
2022/06/29 10:30:46;;;;;;;25.30;24.10;;;23.60;36.80;;;;;;5055104;28;20509;-71
2022/06/29 10:33:34;;;;;;;25.27;24.03;;;23.70;37.00;;;;;;5055670;28;20497;-72
2022/06/29 10:36:09;;;;;;;25.93;24.50;;;23.70;37.00;;;;;;5072179;28;20467;-71
2022/06/29 10:38:58;;;;;;;25.53;24.33;;;23.70;37.20;;;;;;5055398;28;20411;-74
2022/06/29 10:44:09;;;;;;;25.83;24.63;;;23.70;36.20;;;;;;5073513;28;20499;-72
2022/06/29 10:46:56;;;;;;;27.30;25.70;;;23.70;36.60;;;;;;5055379;28;20501;-72
2022/06/29 10:49:23;;;;;;;25.57;24.27;;;23.80;35.40;;;;;;5055150;28;20187;-72
2022/06/29 10:51:49;;;;;;;25.07;23.93;;;23.90;36.00;;;;;;5055142;28;20412;-72
2022/06/29 10:54:26;;;;;;;24.33;23.13;;;24.00;35.70;;;;;;5055220;28;20401;-72
2022/06/29 10:56:53;;;;;;;27.47;25.97;;;24.10;35.30;;;;;;5055240;28;20508;-72
2022/06/29 10:59:35;;;;;;;25.03;23.83;;;24.10;35.60;;;;;;5054960;28;20425;-73
2022/06/29 11:02:13;;;;;;;24.80;23.53;;;24.20;34.60;;;;;;5072462;28;20539;-73
2022/06/29 11:04:40;;;;;;;25.90;24.73;;;24.20;34.50;;;;;;5071541;28;20414;-73
2022/06/29 11:12:51;;;;;;;25.47;24.07;;;24.30;34.00;;;;;;5073105;28;20795;-71
2022/06/29 11:15:40;;;;;;;26.13;24.87;;;24.30;34.30;;;;;;5065911;28;20417;-72
2022/06/29 11:18:13;;;;;;;26.70;25.23;;;24.30;33.60;;;;;;5054683;28;20432;-71
2022/06/29 11:20:40;;;;;;;27.23;25.70;;;24.30;33.60;;;;;;5042093;28;20454;-72
2022/06/29 11:23:14;;;;;;;25.70;24.50;;;24.30;34.10;;;;;;5034659;28;20457;-72
2022/06/29 11:25:43;;;;;;;27.10;25.80;;;24.50;33.80;;;;;;5034683;28;20418;-73
2022/06/29 11:28:09;;;;;;;25.83;24.63;;;24.60;33.60;;;;;;5034611;28;20418;-73
2022/06/29 11:30:34;;;;;;;25.80;24.70;;;24.70;33.50;;;;;;5041687;28;20779;-71
2022/06/29 11:33:10;;;;;;;26.47;25.13;;;24.60;33.50;;;;;;5054315;28;20215;-72
2022/06/29 11:35:38;;;;;;;25.53;24.43;;;24.60;33.90;;;;;;5054440;28;20190;-72
2022/06/29 11:38:05;;;;;;;25.90;24.70;;;24.70;32.70;;;;;;5053551;28;20414;-73
2022/06/29 11:40:35;;;;;;;25.97;24.47;;;24.80;33.50;;;;;;5049150;28;20487;-73
2022/06/29 11:43:13;;;;;;;24.40;23.30;;;24.80;33.50;;;;;;5034272;28;20996;-73
2022/06/29 11:45:45;;;;;;;24.50;23.40;;;24.90;33.10;;;;;;5034447;28;20421;-70
2022/06/29 11:48:19;;;;;;;25.13;23.27;;;24.80;33.20;;;;;;5047498;28;20448;-72
2022/06/29 11:50:49;;;;;;;23.20;22.20;;;24.80;31.10;;;;;;5054095;28;20406;-76
2022/06/29 13:05:10;;;;;;;23.33;22.20;;;25.90;28.10;;;;;;1505032;26;20483;-72
2022/06/29 13:07:37;;;;;;;22.67;21.77;;;25.90;28.90;;;;;;5077355;28;20420;-72
2022/06/29 13:10:06;;;;;;;23.30;22.20;;;26.00;29.30;;;;;;5076912;28;20818;-71
2022/06/29 13:12:32;;;;;;;24.47;23.30;;;26.10;28.90;;;;;;5075450;28;20420;-72
2022/06/29 13:14:58;;;;;;;22.20;21.10;;;26.20;27.60;;;;;;5060266;28;20421;-72
2022/06/29 13:17:24;;;;;;;22.07;21.17;;;26.20;27.00;;;;;;5056880;28;20478;-70
2022/06/29 13:19:50;;;;;;;23.57;22.57;;;26.00;26.80;;;;;;5059760;28;20421;-71
2022/06/29 13:22:16;;;;;;;22.47;21.47;;;25.90;27.20;;;;;;5056941;28;20306;-71
2022/06/29 13:24:42;;;;;;;23.60;22.60;;;25.90;27.50;;;;;;5057339;28;20179;-71
2022/06/29 13:27:08;;;;;;;24.03;22.93;;;25.90;27.60;;;;;;5056939;28;20406;-71
2022/06/29 13:29:35;;;;;;;24.10;22.80;;;25.80;27.90;;;;;;5056524;28;20426;-71
2022/06/29 13:32:01;;;;;;;23.97;22.77;;;25.90;28.10;;;;;;5056334;28;20952;-71
2022/06/29 13:34:28;;;;;;;23.33;22.33;;;25.90;28.20;;;;;;5056887;28;20771;-71
2022/06/29 13:36:54;;;;;;;24.10;23.00;;;25.80;28.20;;;;;;5057015;28;20421;-71
2022/06/29 13:39:21;;;;;;;22.27;21.27;;;25.80;28.10;;;;;;5057125;28;20766;-71
2022/06/29 13:41:47;;;;;;;22.53;21.40;;;25.80;28.90;;;;;;5056156;28;20468;-71
2022/06/29 13:44:14;;;;;;;22.37;21.40;;;25.80;28.80;;;;;;5074338;28;20434;-73
2022/06/29 13:49:52;;;;;;;22.40;21.30;;;26.10;28.30;;;;;;5034049;28;20953;-71
2022/06/29 13:52:24;;;;;;;23.00;21.80;;;26.20;28.20;;;;;;5056241;28;20524;-70
2022/06/29 13:54:50;;;;;;;22.57;21.50;;;26.20;28.50;;;;;;5074228;28;20665;-71
2022/06/29 13:57:16;;;;;;;23.63;22.53;;;26.40;28.10;;;;;;5056292;28;20492;-73
2022/06/29 13:59:41;;;;;;;23.50;22.20;;;26.70;26.70;;;;;;5072656;28;20189;-71
2022/06/29 14:02:08;;;;;;;23.70;22.30;;;26.90;26.00;;;;;;5075296;28;20214;-73
2022/06/29 14:04:33;;;;;;;22.10;21.20;;;27.00;26.90;;;;;;5076171;28;20256;-70
2022/06/29 14:07:00;;;;;;;22.33;21.53;;;27.20;26.20;;;;;;5075982;28;20436;-72
2022/06/29 14:09:25;;;;;;;21.93;21.03;;;27.30;25.90;;;;;;5076073;28;20576;-71
2022/06/29 14:11:51;;;;;;;21.70;20.70;;;27.40;26.30;;;;;;5075776;28;20507;-71
2022/06/29 14:14:18;;;;;;;21.87;20.87;;;27.50;25.80;;;;;;5075757;28;20529;-71
2022/06/29 14:16:44;;;;;;;22.10;21.10;;;27.60;24.50;;;;;;5075764;28;20248;-70
2022/06/29 14:19:09;;;;;;;22.50;21.40;;;27.40;24.90;;;;;;5075929;28;20424;-73
2022/06/29 14:21:35;;;;;;;22.80;21.70;;;27.50;25.80;;;;;;5075587;28;20864;-73
2022/06/29 14:24:02;;;;;;;22.47;21.50;;;27.60;25.50;;;;;;5075744;28;20201;-71
2022/06/29 14:26:28;;;;;;;22.40;21.40;;;27.70;25.10;;;;;;5059074;28;20187;-73
2022/06/29 14:28:54;;;;;;;22.07;21.17;;;27.80;24.30;;;;;;5055426;28;20425;-72
2022/06/29 14:31:20;;;;;;;23.03;21.77;;;27.60;24.90;;;;;;5073405;28;20413;-71
2022/06/29 14:33:46;;;;;;;22.00;21.00;;;27.60;25.00;;;;;;5055566;28;20441;-72
2022/06/29 14:36:12;;;;;;;22.03;20.77;;;27.80;24.50;;;;;;5055630;28;20417;-71
2022/06/29 14:38:38;;;;;;;21.80;20.90;;;27.90;24.90;;;;;;5055272;28;20905;-70
2022/06/29 14:41:03;;;;;;;21.03;20.23;;;28.00;23.40;;;;;;5054955;28;20195;-74
2022/06/29 15:04:18;;;;;;;21.70;20.70;;;27.70;23.50;;;;;;3380871;26;20473;-72
2022/06/29 15:06:45;;;;;;;21.90;21.00;;;27.50;23.90;;;;;;5054865;28;20787;-72
2022/06/29 15:09:11;;;;;;;21.40;20.50;;;27.20;24.50;;;;;;5054952;28;20183;-71
2022/06/29 15:11:36;;;;;;;21.70;20.80;;;27.20;24.60;;;;;;5054657;28;20509;-69
2022/06/29 15:14:02;;;;;;;21.60;20.70;;;26.90;25.20;;;;;;5054599;28;20248;-70
2022/06/29 15:16:49;;;;;;;21.70;20.80;;;26.80;25.40;;;;;;5038169;28;20192;-71
2022/06/29 15:19:18;;;;;;;21.63;20.63;;;26.90;25.90;;;;;;5034852;28;20458;-74
2022/06/29 15:21:45;;;;;;;21.60;20.70;;;26.80;26.00;;;;;;5034282;28;20507;-72
2022/06/29 15:24:48;;;;;;;21.47;20.47;;;26.80;26.70;;;;;;5034592;28;20491;-72
2022/06/29 15:27:14;;;;;;;22.03;21.13;;;27.00;26.10;;;;;;5051972;28;20505;-70
2022/06/29 15:29:41;;;;;;;21.77;20.57;;;26.90;26.00;;;;;;5050194;28;20444;-73
2022/06/29 15:32:07;;;;;;;22.07;20.97;;;26.90;25.60;;;;;;5055421;28;20512;-74
2022/06/29 15:40:03;;;;;;;22.90;21.90;;;26.70;26.00;;;;;;5074607;28;21159;-69
2022/06/29 15:42:29;;;;;;;22.67;21.47;;;26.70;25.90;;;;;;5069699;28;20996;-72
2022/06/29 15:44:55;;;;;;;22.60;21.70;;;26.60;26.10;;;;;;5062754;28;20467;-72
2022/06/29 15:47:21;;;;;;;22.57;21.67;;;26.60;26.50;;;;;;5054290;28;20179;-74
2022/06/29 15:49:46;;;;;;;23.60;22.50;;;26.50;27.10;;;;;;5054256;28;20986;-72
2022/06/29 15:52:12;;;;;;;22.40;21.30;;;26.50;26.60;;;;;;5054041;28;20187;-72
2022/06/29 15:57:23;;;;;;;23.00;22.07;;;26.40;26.90;;;;;;5092532;28;20225;-70
2022/06/29 15:59:48;;;;;;;23.73;22.50;;;26.50;26.40;;;;;;5073867;28;20441;-72
2022/06/29 16:02:14;;;;;;;22.90;21.90;;;26.60;25.90;;;;;;5073907;28;20238;-72
2022/06/29 16:04:42;;;;;;;23.00;21.90;;;26.50;25.80;;;;;;5070443;28;20640;-71
